< < Back
Terminal Aerodrome Forecast


Current Version              Previous Versions:   1  2  3  4  5  6  7  8  9  

Terminal Aerodrome Forecast

092
FTUS42 KGSP 260900 AAA
TAFAVL
TAF AMD
KAVL 260900Z 2609/2706 14003KT P6SM SCT025 BKN035
      TEMPO 2609/2613 BKN025
     FM261400 17003KT P6SM BKN045
     FM261800 17006KT P6SM SCT045
     FM270000 00000KT P6SM FEW045 BKN250=

Latest METAR

454
SAUS70 KWBC 261000 RRC
MTRAVL
METAR KAVL 260954Z AUTO 17006KT 10SM BKN017 BKN024 OVC037 21/18 A3027
RMK AO2 SLP220 T02110178


USA.gov is the U.S. government's official web portal to all federal, state and local government web resources and services.